Time;durP1;ratioP1;P1;durP2;ratioP2;P2;SDS_P1;SDS_P2;PMS_P1;PMS_P2;Temp;Humidity;BMP_temperature;BMP_pressure;BME280_temperature;BME280_humidity;BME280_pressure;Samples;Min_cycle;Max_cycle;Signal;HPM_P1;HPM_P2
2021/08/08 00:05:26;;;;;;;1.92;0.80;;;16.60;99.90;;;;;;12516610;28;20569;-87
2021/08/08 00:11:27;;;;;;;1.30;0.70;;;16.50;99.90;;;;;;12534084;28;20095;-86
2021/08/08 00:17:31;;;;;;;1.83;0.65;;;16.40;99.90;;;;;;12528111;28;20053;-88
2021/08/08 00:23:33;;;;;;;2.33;0.90;;;16.30;99.90;;;;;;12546302;28;20045;-86
2021/08/08 00:29:35;;;;;;;2.78;0.77;;;16.20;99.90;;;;;;12533655;28;20105;-86
2021/08/08 00:35:41;;;;;;;3.08;0.70;;;16.20;99.90;;;;;;12525981;28;20518;-85
2021/08/08 00:41:44;;;;;;;2.20;0.50;;;16.00;99.90;;;;;;12524917;28;20115;-87
2021/08/08 00:47:47;;;;;;;2.42;0.77;;;16.00;99.90;;;;;;12526140;28;20053;-86
2021/08/08 00:53:49;;;;;;;1.17;0.60;;;15.90;99.90;;;;;;12519567;28;20044;-87
2021/08/08 00:59:51;;;;;;;3.33;0.75;;;15.90;99.90;;;;;;12531403;28;20138;-87
2021/08/08 01:06:08;;;;;;;1.25;0.60;;;15.90;99.90;;;;;;12524993;28;20075;-86
2021/08/08 01:12:10;;;;;;;3.45;0.90;;;15.80;99.90;;;;;;12518866;28;20041;-87
2021/08/08 01:18:14;;;;;;;3.90;0.65;;;15.80;99.90;;;;;;12523473;28;20465;-87
2021/08/08 01:24:16;;;;;;;2.23;0.60;;;15.70;99.90;;;;;;12523163;28;20485;-85
2021/08/08 01:30:19;;;;;;;4.25;0.63;;;15.70;99.90;;;;;;12525793;28;20335;-86
2021/08/08 01:36:20;;;;;;;1.52;0.70;;;15.70;99.90;;;;;;12521580;28;20103;-86
2021/08/08 01:42:23;;;;;;;3.38;0.75;;;15.60;99.90;;;;;;12515922;28;20044;-86
2021/08/08 01:48:25;;;;;;;2.53;0.68;;;15.50;99.90;;;;;;12525896;28;20410;-87
2021/08/08 01:54:29;;;;;;;2.65;0.70;;;15.50;99.90;;;;;;12523443;28;20045;-86
2021/08/08 02:00:31;;;;;;;3.10;0.68;;;15.50;99.90;;;;;;12518134;28;20610;-85
2021/08/08 02:06:33;;;;;;;2.63;0.85;;;15.60;99.90;;;;;;12525404;28;20782;-86
2021/08/08 02:12:35;;;;;;;6.20;0.80;;;15.50;99.90;;;;;;12524116;28;20052;-87
2021/08/08 02:18:37;;;;;;;2.13;0.77;;;15.50;99.90;;;;;;12523353;28;20049;-85
2021/08/08 02:24:38;;;;;;;2.60;0.80;;;15.50;99.90;;;;;;12522550;28;20045;-87
2021/08/08 02:30:40;;;;;;;2.97;0.90;;;15.50;99.90;;;;;;12524971;28;20045;-86
2021/08/08 02:36:42;;;;;;;2.25;0.80;;;15.60;99.90;;;;;;12525534;28;20048;-85
2021/08/08 02:42:44;;;;;;;4.30;0.70;;;15.70;99.90;;;;;;12521212;28;20049;-85
2021/08/08 02:48:46;;;;;;;4.72;1.23;;;15.70;99.90;;;;;;12525315;28;20122;-87
2021/08/08 02:54:48;;;;;;;3.13;0.88;;;15.70;99.90;;;;;;12520963;28;20083;-87
2021/08/08 03:00:50;;;;;;;4.88;1.00;;;15.70;99.90;;;;;;12512854;28;20083;-84
2021/08/08 03:06:52;;;;;;;3.03;1.10;;;15.60;99.90;;;;;;12525798;28;20139;-86
2021/08/08 03:12:53;;;;;;;2.15;0.88;;;15.70;99.90;;;;;;12525254;28;20357;-87
2021/08/08 03:18:55;;;;;;;2.00;0.90;;;15.70;99.90;;;;;;12517074;28;20106;-84
2021/08/08 03:24:57;;;;;;;5.28;0.80;;;15.80;99.90;;;;;;12519786;28;20095;-84
2021/08/08 03:30:59;;;;;;;2.90;0.80;;;15.90;99.90;;;;;;12522630;28;20044;-86
2021/08/08 03:37:01;;;;;;;4.15;1.10;;;15.90;99.90;;;;;;12520863;28;20049;-85
2021/08/08 03:43:04;;;;;;;2.67;1.08;;;15.90;99.90;;;;;;12522549;28;20053;-85
2021/08/08 03:49:05;;;;;;;5.40;1.50;;;16.00;99.90;;;;;;12525583;28;20489;-85
2021/08/08 03:55:08;;;;;;;7.22;1.67;;;16.00;99.90;;;;;;12525936;28;20045;-85
2021/08/08 04:01:10;;;;;;;4.93;1.50;;;15.90;99.90;;;;;;12542329;28;20070;-87
2021/08/08 04:07:11;;;;;;;4.50;1.50;;;15.80;99.90;;;;;;12550252;28;20512;-86
2021/08/08 04:13:13;;;;;;;6.80;2.60;;;15.70;99.90;;;;;;12527523;28;20048;-85
2021/08/08 04:19:15;;;;;;;5.78;1.55;;;15.60;99.90;;;;;;12532092;28;20074;-87
2021/08/08 04:25:17;;;;;;;5.25;1.90;;;15.60;99.90;;;;;;12530816;28;20133;-84
2021/08/08 04:31:19;;;;;;;4.85;2.08;;;15.80;99.90;;;;;;12531891;28;20103;-85
2021/08/08 04:37:21;;;;;;;6.68;2.03;;;15.80;99.90;;;;;;12528851;28;20044;-85
2021/08/08 04:43:22;;;;;;;7.00;2.10;;;15.90;99.90;;;;;;12526201;28;20082;-86
2021/08/08 04:49:24;;;;;;;6.75;2.35;;;15.90;99.90;;;;;;12535502;28;20080;-86
2021/08/08 04:55:26;;;;;;;7.88;2.33;;;15.90;99.90;;;;;;12536959;28;20045;-86
2021/08/08 05:01:29;;;;;;;5.22;2.25;;;16.00;99.90;;;;;;12527889;28;20049;-88
2021/08/08 05:07:35;;;;;;;8.07;2.15;;;16.10;99.90;;;;;;12529592;28;20425;-86
2021/08/08 05:13:37;;;;;;;4.05;2.13;;;16.10;99.90;;;;;;12522850;28;20045;-86
2021/08/08 05:19:39;;;;;;;6.93;2.22;;;16.20;99.90;;;;;;12529763;28;20115;-85
2021/08/08 05:25:41;;;;;;;5.38;2.00;;;16.20;99.90;;;;;;12524199;28;20398;-88
2021/08/08 05:31:43;;;;;;;5.53;1.95;;;16.20;99.90;;;;;;12522644;28;20098;-88
2021/08/08 05:37:45;;;;;;;7.15;2.13;;;16.20;99.90;;;;;;12524681;28;20049;-86
2021/08/08 05:43:47;;;;;;;7.13;2.05;;;16.20;99.90;;;;;;12521790;28;20084;-86
2021/08/08 05:49:49;;;;;;;7.63;2.30;;;16.20;99.90;;;;;;12524796;28;20048;-87
2021/08/08 05:55:51;;;;;;;6.13;2.13;;;16.30;99.90;;;;;;12527599;28;20464;-87
2021/08/08 06:01:53;;;;;;;5.03;1.92;;;16.30;99.90;;;;;;12526179;28;20122;-86
2021/08/08 06:07:55;;;;;;;7.80;2.05;;;16.30;99.90;;;;;;12529043;28;20084;-86
2021/08/08 06:13:57;;;;;;;6.18;1.95;;;16.40;99.90;;;;;;12526235;28;20126;-87
2021/08/08 06:19:59;;;;;;;5.30;1.75;;;16.50;99.90;;;;;;12517240;28;20512;-85
2021/08/08 06:26:00;;;;;;;7.53;1.83;;;16.50;99.90;;;;;;12522779;28;20137;-85
2021/08/08 06:32:05;;;;;;;11.90;1.92;;;16.70;99.90;;;;;;12517603;28;20044;-85
2021/08/08 06:38:07;;;;;;;7.07;1.95;;;16.80;99.90;;;;;;12513359;28;20048;-86
2021/08/08 06:44:10;;;;;;;5.60;1.70;;;16.90;99.90;;;;;;12524862;28;20759;-87
2021/08/08 06:50:12;;;;;;;14.40;2.40;;;17.10;99.90;;;;;;12519567;28;20350;-88
2021/08/08 06:56:13;;;;;;;9.82;2.38;;;17.20;99.90;;;;;;12517357;28;20101;-87
2021/08/08 07:02:15;;;;;;;8.95;2.47;;;17.10;99.90;;;;;;12512365;28;20095;-88
2021/08/08 07:08:17;;;;;;;4.65;2.20;;;17.10;99.90;;;;;;12521294;28;20053;-87
2021/08/08 07:14:19;;;;;;;8.85;2.60;;;17.00;99.90;;;;;;12519153;28;20041;-87
2021/08/08 07:20:21;;;;;;;7.65;2.92;;;17.00;99.90;;;;;;12526869;28;20554;-86
2021/08/08 07:26:23;;;;;;;8.77;2.88;;;17.00;99.90;;;;;;12518604;28;20053;-89
2021/08/08 07:32:25;;;;;;;12.52;2.97;;;17.00;99.90;;;;;;12528601;28;20053;-87
2021/08/08 07:38:27;;;;;;;12.50;2.95;;;17.40;99.90;;;;;;12532984;28;20068;-87
2021/08/08 07:44:29;;;;;;;7.15;2.42;;;17.30;99.90;;;;;;12532486;28;20090;-86
2021/08/08 07:50:31;;;;;;;7.40;2.67;;;17.20;99.90;;;;;;12527132;28;20107;-86
2021/08/08 07:56:33;;;;;;;7.90;2.40;;;17.60;99.90;;;;;;12535905;28;20053;-87
2021/08/08 08:02:35;;;;;;;8.18;2.53;;;17.60;99.90;;;;;;12531515;28;20933;-85
2021/08/08 08:08:37;;;;;;;12.18;2.95;;;17.70;99.90;;;;;;12557713;28;20052;-86
2021/08/08 08:14:43;;;;;;;7.90;2.60;;;17.60;99.90;;;;;;12529515;28;20744;-88
2021/08/08 08:20:45;;;;;;;8.63;2.33;;;17.60;99.90;;;;;;12535831;28;20056;-86
2021/08/08 08:26:47;;;;;;;8.95;2.60;;;17.60;99.90;;;;;;12513911;28;20053;-87
2021/08/08 08:32:49;;;;;;;6.38;2.63;;;17.50;99.90;;;;;;12529213;28;20049;-87
2021/08/08 08:39:02;;;;;;;10.77;2.63;;;17.40;99.90;;;;;;12520530;28;20080;-86
2021/08/08 08:45:04;;;;;;;16.70;2.88;;;17.30;99.90;;;;;;12524289;28;20463;-86
2021/08/08 08:51:08;;;;;;;8.65;2.50;;;17.40;99.90;;;;;;12532767;28;20053;-87
2021/08/08 08:57:11;;;;;;;5.75;2.35;;;17.40;99.90;;;;;;12529158;28;20131;-86
2021/08/08 09:03:13;;;;;;;11.95;3.10;;;17.50;99.90;;;;;;12529094;28;20040;-88
2021/08/08 09:09:15;;;;;;;7.38;2.13;;;18.00;99.90;;;;;;12520575;28;20052;-86
2021/08/08 09:15:18;;;;;;;6.88;2.40;;;18.00;99.90;;;;;;12520374;28;20503;-86
2021/08/08 09:21:21;;;;;;;9.27;2.70;;;17.90;99.90;;;;;;12524358;28;20091;-87
2021/08/08 09:27:35;;;;;;;8.40;2.40;;;17.80;99.90;;;;;;12522578;28;21004;-86
2021/08/08 09:33:41;;;;;;;6.75;2.40;;;18.50;99.90;;;;;;12523685;28;20105;-87
2021/08/08 09:39:48;;;;;;;8.20;2.65;;;18.40;99.90;;;;;;12521683;28;20066;-86
2021/08/08 09:45:50;;;;;;;9.18;2.95;;;18.00;99.90;;;;;;12529372;28;20044;-86
2021/08/08 09:51:53;;;;;;;6.80;2.63;;;18.00;99.90;;;;;;12524771;28;20401;-86
2021/08/08 09:57:56;;;;;;;5.57;2.50;;;18.10;99.90;;;;;;12520393;28;20048;-86
2021/08/08 10:03:58;;;;;;;8.25;2.75;;;18.10;99.90;;;;;;12528157;28;20045;-87
2021/08/08 10:10:01;;;;;;;10.40;3.25;;;17.90;99.90;;;;;;12518461;28;20052;-88
2021/08/08 10:16:09;;;;;;;8.02;3.10;;;17.80;99.90;;;;;;12513485;28;20071;-87
2021/08/08 10:22:12;;;;;;;8.82;3.10;;;17.80;99.90;;;;;;12517268;28;20063;-87
2021/08/08 10:28:20;;;;;;;9.50;3.60;;;18.30;99.90;;;;;;12524710;28;20450;-88
2021/08/08 10:34:30;;;;;;;7.85;2.20;;;18.60;99.90;;;;;;12523031;28;20050;-87
2021/08/08 10:40:36;;;;;;;4.80;1.80;;;18.50;99.90;;;;;;12524421;28;20552;-88
2021/08/08 10:46:50;;;;;;;9.38;1.95;;;18.40;99.90;;;;;;12519115;28;20049;-87
2021/08/08 10:52:52;;;;;;;7.78;2.42;;;18.40;99.90;;;;;;12517593;28;20053;-87
2021/08/08 10:58:54;;;;;;;5.53;1.83;;;18.30;99.90;;;;;;12520358;28;20041;-87
2021/08/08 11:04:57;;;;;;;6.10;1.58;;;18.50;99.90;;;;;;12513039;28;20129;-89
2021/08/08 11:11:05;;;;;;;4.75;1.73;;;19.20;99.90;;;;;;12511165;28;20044;-88
2021/08/08 11:17:07;;;;;;;7.28;1.60;;;20.30;99.90;;;;;;12514934;28;20086;-87
2021/08/08 11:23:10;;;;;;;4.65;1.60;;;20.30;99.90;;;;;;12515012;28;20048;-88
2021/08/08 11:29:12;;;;;;;5.43;2.05;;;19.80;99.90;;;;;;12521284;28;20049;-88
2021/08/08 11:35:20;;;;;;;6.60;1.67;;;19.70;99.90;;;;;;12516893;28;20041;-88
2021/08/08 11:41:24;;;;;;;5.65;1.45;;;20.30;99.90;;;;;;12516572;28;20046;-87
2021/08/08 11:47:27;;;;;;;7.53;1.58;;;20.00;99.90;;;;;;12535338;28;21775;-86
2021/08/08 11:53:36;;;;;;;7.95;1.85;;;20.30;99.90;;;;;;12540607;28;20202;-86
2021/08/08 11:59:38;;;;;;;5.97;1.73;;;19.80;99.90;;;;;;12515427;28;20134;-86
2021/08/08 12:05:42;;;;;;;4.78;1.50;;;19.80;99.90;;;;;;12508288;28;20094;-88
2021/08/08 12:11:52;;;;;;;7.15;2.28;;;20.10;99.90;;;;;;12515036;28;20052;-87
2021/08/08 12:17:59;;;;;;;7.85;1.80;;;20.30;99.90;;;;;;12509232;28;20070;-88
2021/08/08 12:24:09;;;;;;;8.80;1.90;;;20.20;99.90;;;;;;12521609;28;20037;-86
2021/08/08 12:30:14;;;;;;;6.57;2.08;;;20.00;99.90;;;;;;12515381;28;20081;-88
2021/08/08 12:36:16;;;;;;;6.78;1.92;;;20.10;99.90;;;;;;12514771;28;20041;-88
2021/08/08 12:42:24;;;;;;;6.75;1.67;;;20.00;99.90;;;;;;12519555;28;20136;-88
2021/08/08 12:48:30;;;;;;;6.95;1.88;;;20.40;99.90;;;;;;12526171;28;20072;-88
2021/08/08 12:54:34;;;;;;;7.65;1.80;;;20.40;99.90;;;;;;12509515;28;20136;-87
2021/08/08 13:00:36;;;;;;;6.80;2.05;;;20.00;99.90;;;;;;12513734;28;20045;-88
2021/08/08 13:06:38;;;;;;;7.30;1.70;;;20.10;99.90;;;;;;12515144;28;20504;-87
2021/08/08 13:12:41;;;;;;;6.78;1.90;;;20.00;99.90;;;;;;12523257;28;20117;-87
2021/08/08 13:18:43;;;;;;;5.57;1.83;;;20.70;99.90;;;;;;12506968;28;20102;-88
2021/08/08 13:24:45;;;;;;;5.50;1.45;;;20.80;99.90;;;;;;12517931;28;20391;-89
2021/08/08 13:30:47;;;;;;;6.45;1.67;;;21.60;99.90;;;;;;12511675;28;20049;-87
2021/08/08 13:36:49;;;;;;;5.60;1.30;;;21.20;99.90;;;;;;12514606;28;20248;-87
2021/08/08 13:42:51;;;;;;;7.55;1.42;;;20.20;99.90;;;;;;12518082;28;20045;-86
2021/08/08 13:48:53;;;;;;;10.15;2.17;;;20.40;99.90;;;;;;12507821;28;20057;-87
2021/08/08 13:54:55;;;;;;;4.82;1.27;;;20.20;99.90;;;;;;12506146;28;20466;-88
2021/08/08 14:00:58;;;;;;;4.15;1.38;;;20.00;99.90;;;;;;12522412;28;20047;-88
2021/08/08 14:07:01;;;;;;;5.55;1.48;;;19.80;99.90;;;;;;12518312;28;20049;-87
2021/08/08 14:13:03;;;;;;;5.32;1.52;;;19.90;99.90;;;;;;12520770;28;20139;-88
2021/08/08 14:19:05;;;;;;;5.13;1.38;;;19.90;99.90;;;;;;12519231;28;20477;-87
2021/08/08 14:25:07;;;;;;;4.53;1.30;;;20.40;99.90;;;;;;12509488;28;20041;-87
2021/08/08 14:31:09;;;;;;;6.68;1.35;;;20.90;99.90;;;;;;12519787;28;20519;-87
2021/08/08 14:37:11;;;;;;;9.20;1.40;;;20.90;99.90;;;;;;12504288;28;20052;-88
2021/08/08 14:43:13;;;;;;;8.98;1.40;;;20.70;99.90;;;;;;12518885;28;20076;-87
2021/08/08 14:49:15;;;;;;;7.45;1.30;;;20.60;99.90;;;;;;12519000;28;20049;-88
2021/08/08 14:55:17;;;;;;;7.70;1.73;;;20.70;99.90;;;;;;12523627;28;20045;-87
2021/08/08 15:01:19;;;;;;;4.55;1.50;;;20.90;99.90;;;;;;12518164;28;20528;-88
2021/08/08 15:07:21;;;;;;;4.72;1.17;;;21.60;99.90;;;;;;12521653;28;20512;-87
2021/08/08 15:13:23;;;;;;;5.93;1.52;;;22.10;99.90;;;;;;12521998;28;20049;-88
2021/08/08 15:19:25;;;;;;;4.13;1.15;;;21.60;99.90;;;;;;12558294;28;20049;-89
2021/08/08 15:25:27;;;;;;;5.47;1.20;;;21.50;99.90;;;;;;12514081;28;20390;-86
2021/08/08 15:31:29;;;;;;;4.10;1.20;;;21.50;99.90;;;;;;12520670;28;20083;-87
2021/08/08 15:37:31;;;;;;;5.25;1.10;;;21.80;99.90;;;;;;12514594;28;20076;-88
2021/08/08 15:43:33;;;;;;;6.53;1.40;;;22.20;99.90;;;;;;12523195;28;20049;-87
2021/08/08 15:49:35;;;;;;;4.25;1.30;;;22.60;99.90;;;;;;12518362;28;20045;-88
2021/08/08 15:55:37;;;;;;;6.65;1.30;;;22.50;99.90;;;;;;12530083;28;20168;-86
2021/08/08 16:01:38;;;;;;;4.03;1.17;;;21.30;99.90;;;;;;12530389;28;20684;-86
2021/08/08 16:07:40;;;;;;;5.47;1.05;;;20.90;99.90;;;;;;12524641;28;20114;-87
2021/08/08 16:13:42;;;;;;;5.05;1.00;;;20.70;99.90;;;;;;12525222;28;20044;-88
2021/08/08 16:19:44;;;;;;;4.80;1.08;;;20.70;99.90;;;;;;12531909;28;20104;-86
2021/08/08 16:25:48;;;;;;;6.05;1.23;;;20.40;99.90;;;;;;12526206;28;20085;-87
2021/08/08 16:31:50;;;;;;;3.92;1.13;;;20.30;99.90;;;;;;12515891;28;20615;-88
2021/08/08 16:37:52;;;;;;;6.77;1.77;;;20.00;99.90;;;;;;12535390;28;20140;-86
2021/08/08 16:43:57;;;;;;;4.88;1.08;;;18.80;99.90;;;;;;12518557;28;20067;-86
2021/08/08 16:49:59;;;;;;;3.35;1.15;;;16.90;99.90;;;;;;12528055;28;20109;-87
2021/08/08 16:56:00;;;;;;;2.78;0.90;;;16.60;99.90;;;;;;12523934;28;20056;-86
2021/08/08 17:02:03;;;;;;;4.10;1.20;;;16.50;99.90;;;;;;12520899;28;20049;-87
2021/08/08 17:08:05;;;;;;;3.80;0.95;;;16.60;99.90;;;;;;12519492;28;20057;-85
2021/08/08 17:14:07;;;;;;;2.55;1.10;;;16.50;99.90;;;;;;12529014;28;20097;-84
2021/08/08 17:20:10;;;;;;;3.35;0.93;;;16.60;99.90;;;;;;12522256;28;20041;-86
2021/08/08 17:26:11;;;;;;;6.75;1.13;;;17.00;99.90;;;;;;12516722;28;20064;-87
2021/08/08 17:32:13;;;;;;;2.97;0.95;;;17.40;99.90;;;;;;12520100;28;20083;-85
2021/08/08 17:38:15;;;;;;;2.35;0.85;;;17.20;99.90;;;;;;12525291;28;20103;-86
2021/08/08 17:44:17;;;;;;;3.53;0.90;;;17.40;99.90;;;;;;12529294;28;20068;-86
2021/08/08 17:50:19;;;;;;;3.53;0.90;;;17.40;99.90;;;;;;12514593;28;20060;-88
2021/08/08 17:56:21;;;;;;;2.33;0.80;;;17.30;99.90;;;;;;12518141;28;20041;-87
2021/08/08 18:02:23;;;;;;;2.72;0.80;;;17.50;99.90;;;;;;12520958;28;20071;-86
2021/08/08 18:08:25;;;;;;;3.72;1.00;;;17.40;99.90;;;;;;12510773;28;20063;-87
2021/08/08 18:14:26;;;;;;;2.42;0.80;;;17.10;99.90;;;;;;12510222;28;20451;-87
2021/08/08 18:20:28;;;;;;;4.70;1.13;;;16.70;99.90;;;;;;12522155;28;20052;-85
2021/08/08 18:26:30;;;;;;;2.78;0.90;;;16.50;99.90;;;;;;12518162;28;20113;-86
2021/08/08 18:32:32;;;;;;;4.47;1.20;;;16.40;99.90;;;;;;12548188;28;20660;-87
2021/08/08 18:38:34;;;;;;;3.88;0.95;;;16.20;99.90;;;;;;12540609;28;20498;-86
2021/08/08 18:44:36;;;;;;;4.80;1.20;;;16.10;99.90;;;;;;12525755;28;20048;-84
2021/08/08 18:50:38;;;;;;;3.67;1.00;;;16.00;99.90;;;;;;12526876;28;20113;-85
2021/08/08 18:56:39;;;;;;;2.38;0.90;;;15.90;99.90;;;;;;12526582;28;20106;-84
2021/08/08 19:02:41;;;;;;;2.67;1.00;;;15.80;99.90;;;;;;12524552;28;20425;-84
2021/08/08 19:08:43;;;;;;;2.65;0.95;;;15.70;99.90;;;;;;12528757;28;20057;-84
2021/08/08 19:14:45;;;;;;;4.00;1.10;;;15.60;99.90;;;;;;12524892;28;20524;-85
2021/08/08 19:20:49;;;;;;;4.15;1.20;;;15.60;99.90;;;;;;12527261;28;20143;-85
2021/08/08 19:26:51;;;;;;;;;;;15.60;99.90;;;;;;12535386;28;20870;-85
2021/08/08 19:32:53;;;;;;;6.10;1.45;;;15.50;99.90;;;;;;12531124;28;19962;-84
2021/08/08 19:38:55;;;;;;;3.42;1.13;;;15.40;99.90;;;;;;12535330;28;20106;-84
2021/08/08 19:44:57;;;;;;;2.00;0.90;;;15.40;99.90;;;;;;12535069;28;20574;-85
2021/08/08 19:50:59;;;;;;;2.67;1.10;;;15.20;99.90;;;;;;12533335;28;20404;-85
2021/08/08 19:57:01;;;;;;;3.05;1.08;;;15.00;99.90;;;;;;12538344;28;20045;-84
2021/08/08 20:03:03;;;;;;;2.90;1.10;;;15.00;99.90;;;;;;12535516;28;20822;-84
2021/08/08 20:09:05;;;;;;;3.72;1.35;;;14.80;99.90;;;;;;12539134;28;20095;-84
2021/08/08 20:15:09;;;;;;;2.95;1.10;;;14.80;99.90;;;;;;12534206;28;20478;-82
2021/08/08 20:21:11;;;;;;;4.87;1.17;;;14.90;99.90;;;;;;12539670;28;20128;-84
2021/08/08 20:27:13;;;;;;;3.17;1.27;;;14.80;99.90;;;;;;12534308;28;20076;-83
2021/08/08 20:33:15;;;;;;;3.08;1.42;;;14.80;99.90;;;;;;12539342;28;20075;-84
2021/08/08 20:39:17;;;;;;;2.70;1.27;;;14.70;99.90;;;;;;12531508;28;20480;-84
2021/08/08 20:45:20;;;;;;;2.50;1.25;;;14.70;99.90;;;;;;12531675;28;20103;-85
2021/08/08 20:51:22;;;;;;;2.38;1.23;;;14.60;99.90;;;;;;12535181;28;20045;-85
2021/08/08 20:57:24;;;;;;;4.15;1.42;;;14.50;99.90;;;;;;12533774;28;20132;-84
2021/08/08 21:03:26;;;;;;;7.47;1.20;;;14.50;99.90;;;;;;12535215;28;20044;-84
2021/08/08 21:09:27;;;;;;;4.57;1.35;;;14.50;99.90;;;;;;12528059;28;20114;-85
2021/08/08 21:15:29;;;;;;;5.47;1.58;;;14.50;99.90;;;;;;12533228;28;20077;-84
2021/08/08 21:21:31;;;;;;;2.60;1.30;;;14.50;99.90;;;;;;12527210;28;20049;-83
2021/08/08 21:27:33;;;;;;;4.32;1.48;;;14.40;99.90;;;;;;12535921;28;20534;-83
2021/08/08 21:33:35;;;;;;;5.32;1.67;;;14.40;99.90;;;;;;12539825;28;20457;-84
2021/08/08 21:39:37;;;;;;;6.13;1.60;;;14.40;99.90;;;;;;12559989;28;20092;-84
2021/08/08 21:45:38;;;;;;;3.25;1.10;;;14.40;99.90;;;;;;12553159;28;20045;-83
2021/08/08 21:51:40;;;;;;;4.45;1.40;;;14.30;99.90;;;;;;12536793;28;20171;-84
2021/08/08 21:57:42;;;;;;;7.43;1.50;;;14.40;99.90;;;;;;12534007;28;20056;-84
2021/08/08 22:03:44;;;;;;;4.75;1.50;;;14.40;99.90;;;;;;12531997;28;20041;-83
2021/08/08 22:09:46;;;;;;;4.78;1.38;;;14.40;99.90;;;;;;12525543;28;20044;-83
2021/08/08 22:15:48;;;;;;;3.97;1.20;;;14.60;99.90;;;;;;12529481;28;20076;-85
2021/08/08 22:21:50;;;;;;;3.45;1.30;;;14.60;99.90;;;;;;12530236;28;20052;-83
2021/08/08 22:27:53;;;;;;;3.33;1.30;;;14.70;99.90;;;;;;12536544;28;20456;-84
2021/08/08 22:33:54;;;;;;;2.92;1.30;;;14.50;99.90;;;;;;12534244;28;20098;-84
2021/08/08 22:39:56;;;;;;;5.15;1.40;;;14.50;99.90;;;;;;12523289;28;20044;-83
2021/08/08 22:45:58;;;;;;;4.47;1.35;;;14.60;99.90;;;;;;12513702;28;20053;-85
2021/08/08 22:52:00;;;;;;;2.45;1.17;;;14.60;99.90;;;;;;12527322;28;20088;-84
2021/08/08 22:58:03;;;;;;;7.30;1.40;;;14.60;99.90;;;;;;12531218;28;20047;-85
2021/08/08 23:04:05;;;;;;;5.53;1.50;;;14.60;99.90;;;;;;12528125;28;20089;-85
2021/08/08 23:10:07;;;;;;;4.82;1.30;;;14.60;99.90;;;;;;12526820;28;20103;-83
2021/08/08 23:16:09;;;;;;;4.07;1.40;;;14.60;99.90;;;;;;12529019;28;20049;-84
2021/08/08 23:22:11;;;;;;;7.07;1.20;;;14.60;99.90;;;;;;12533354;28;20514;-84
2021/08/08 23:28:13;;;;;;;5.38;1.45;;;14.60;99.90;;;;;;12528505;28;20048;-84
2021/08/08 23:34:15;;;;;;;4.53;1.15;;;14.60;99.90;;;;;;12533674;28;20049;-84
2021/08/08 23:40:16;;;;;;;4.65;1.38;;;14.50;99.90;;;;;;12522590;28;20048;-83
2021/08/08 23:46:18;;;;;;;4.05;1.35;;;14.50;99.90;;;;;;12527973;28;20130;-85
2021/08/08 23:52:20;;;;;;;5.55;1.42;;;14.50;99.90;;;;;;12523716;28;20570;-84
2021/08/08 23:58:22;;;;;;;4.00;1.60;;;14.60;99.90;;;;;;12530396;28;20545;-84
